This is the latest recevied weather packets stored in our database for station/object K8EMA-4. If no packets are shown the sender has not sent any weather packets the latest 10 day(s).
| Time | Temp. | Humidity | Pressure | Rain* | Wind** | Luminosity | Snow |
|---|---|---|---|---|---|---|---|
| 1778023584 | 8.89° C | 100% | 0 hPa | 3.3 mm | - | - | - |
| 1778023284 | 8.89° C | 100% | 0 hPa | 3.05 mm | - | - | - |
| 1778022984 | 8.89° C | 100% | 0 hPa | 3.05 mm | - | - | - |
| 1778022684 | 9.44° C | 100% | 0 hPa | 3.05 mm | - | - | - |
| 1778022384 | 9.44° C | 100% | 0 hPa | 2.79 mm | - | - | - |
| 1778022084 | 9.44° C | 100% | 0 hPa | 2.79 mm | - | - | - |
| 1778021784 | 10° C | 100% | 0 hPa | 2.54 mm | - | - | - |
| 1778021484 | 10° C | 100% | 0 hPa | 2.29 mm | - | - | - |
| 1778021184 | 10.56° C | 100% | 0 hPa | 2.03 mm | - | - | - |
| 1778020885 | 11.67° C | 100% | 0 hPa | 1.52 mm | - | - | - |
| 1778020584 | 12.78° C | 100% | 0 hPa | 0.51 mm | - | - | - |
| 1778020285 | 13.89° C | 100% | 0 hPa | 0.25 mm | - | - | - |
| 1778019984 | 13.89° C | 100% | 0 hPa | 0.25 mm | - | - | - |
| 1778019684 | 13.89° C | 100% | 0 hPa | 0.25 mm | - | - | - |
| 1778019449 | 13.89° C | 100% | 0 hPa | 0 mm | - | - | - |
| 1778019386 | 13.89° C | 100% | 0 hPa | 0 mm | - | - | - |
| 1778019087 | 14.44° C | 100% | 0 hPa | 0 mm | - | - | - |
| 1778018784 | 13.89° C | 100% | 0 hPa | 0 mm | - | - | - |
| 1778018487 | 13.89° C | 100% | 0 hPa | 0.25 mm | - | - | - |
| 1778018187 | 14.44° C | 100% | 0 hPa | 0.25 mm | - | - | - |
| 1778017886 | 14.44° C | 100% | 0 hPa | 0.25 mm | - | - | - |
| 1778017586 | 14.44° C | 100% | 0 hPa | 0.51 mm | - | - | - |
| 1778017286 | 14.44° C | 100% | 0 hPa | 0.51 mm | - | - | - |
| 1778016984 | 14.44° C | 100% | 0 hPa | 0.76 mm | - | - | - |
| 1778016684 | 14.44° C | 100% | 0 hPa | 1.02 mm | - | - | - |
* Rain latest hour (hover to see other rain measurements)
** Current wind speed in m/s (hover to see current wind gust speed)